Lambert, Missouri
Current Conditions -  °F | °C
As of 2:53 PM on Saturday 22 Nov 2014 (Local Time) from KCGI Reporting Station
Broken Clouds Broken Clouds  
Wind Chill: 62°   Ceiling: 9500
Heat Index: 62°   Visibility: 10mi
Dew Point: 46°   Wind: 13mph
Humidity: 56%   Direction: 190°S
Pressure: 30.06"   Gusts: NA
Location:  37.0755°N, 89.5496°W
Report Text: KCGI 222053Z 19011KT 10SM BKN095 BKN110 17/08 A3006 RMK AO2 SLP178 T01670078 58027
Loading
Personal Weather Stations






























Interactive Weather Map New forecast layout! Learn more

10-Day Weather Forecast

Advertisements
Track Severe Weather on mobile